Time;durP1;ratioP1;P1;durP2;ratioP2;P2;SDS_P1;SDS_P2;PMS_P1;PMS_P2;Temp;Humidity;BMP_temperature;BMP_pressure;BME280_temperature;BME280_humidity;BME280_pressure;Samples;Min_cycle;Max_cycle;Signal;HPM_P1;HPM_P2
2021/12/25 00:01:01;;;;;;;15.90;9.10;;;;;;;5.16;99.16;100233.34;5030804;28;20029;-82
2021/12/25 00:03:27;;;;;;;18.10;10.52;;;;;;;5.19;98.68;100238.25;5023243;28;20057;-81
2021/12/25 00:05:53;;;;;;;17.23;10.43;;;;;;;5.08;98.46;100239.16;5027233;28;20514;-81
2021/12/25 00:08:24;;;;;;;18.33;10.95;;;;;;;5.08;98.67;100241.75;5032333;28;20037;-81
2021/12/25 00:10:50;;;;;;;15.85;10.45;;;;;;;5.07;99.01;100240.94;5015869;28;20045;-81
2021/12/25 00:13:19;;;;;;;16.13;9.38;;;;;;;5.07;98.89;100235.81;5032140;28;20029;-81
2021/12/25 00:15:44;;;;;;;16.20;9.13;;;;;;;4.98;98.74;100241.72;5014555;28;20093;-81
2021/12/25 00:18:10;;;;;;;14.27;8.65;;;;;;;5.04;99.05;100237.81;5031293;28;20498;-81
2021/12/25 00:20:36;;;;;;;16.00;8.93;;;;;;;4.97;98.85;100239.28;5015632;28;20041;-81
2021/12/25 00:23:05;;;;;;;15.15;8.82;;;;;;;4.97;98.89;100245.25;5015635;28;20040;-82
2021/12/25 00:25:36;;;;;;;14.32;8.50;;;;;;;4.98;98.97;100248.63;5008442;28;20037;-81
2021/12/25 00:28:17;;;;;;;13.27;8.00;;;;;;;4.98;99.00;100246.88;5030453;28;20132;-79
2021/12/25 00:31:00;;;;;;;14.07;7.95;;;;;;;4.94;98.97;100250.66;5013939;28;20308;-82
2021/12/25 00:33:51;;;;;;;12.80;7.72;;;;;;;4.88;98.66;100249.44;5018597;28;20037;-80
2021/12/25 00:36:19;;;;;;;13.82;7.65;;;;;;;4.93;98.73;100245.66;5047704;28;20034;-81
2021/12/25 00:38:46;;;;;;;10.88;7.05;;;;;;;4.93;98.02;100241.31;5031317;28;20116;-82
2021/12/25 00:41:15;;;;;;;11.88;7.95;;;;;;;4.92;98.14;100239.72;5014640;28;20132;-79
2021/12/25 00:43:41;;;;;;;10.13;6.68;;;;;;;4.93;98.28;100237.94;5031695;28;20080;-82
2021/12/25 00:46:06;;;;;;;12.90;8.02;;;;;;;4.89;98.02;100237.38;5028472;28;20124;-81
2021/12/25 00:48:32;;;;;;;13.75;7.97;;;;;;;4.78;97.98;100233.16;5031979;28;20037;-81
2021/12/25 00:50:59;;;;;;;11.18;6.55;;;;;;;4.75;97.97;100235.22;5015815;28;20025;-82
2021/12/25 00:53:27;;;;;;;11.50;7.38;;;;;;;4.78;98.63;100237.50;5024652;28;20029;-81
2021/12/25 00:55:53;;;;;;;13.63;7.65;;;;;;;4.75;98.22;100240.34;5030206;28;20056;-80
2021/12/25 00:58:19;;;;;;;12.68;7.43;;;;;;;4.76;98.23;100242.75;5018330;28;20120;-80
2021/12/25 01:00:45;;;;;;;11.38;7.10;;;;;;;4.68;97.54;100242.63;5019033;28;20386;-80
2021/12/25 01:03:13;;;;;;;11.30;7.53;;;;;;;4.65;97.54;100246.28;5005478;28;20682;-79
2021/12/25 01:05:38;;;;;;;11.60;7.20;;;;;;;4.63;97.84;100245.59;5026730;28;20125;-80
2021/12/25 01:08:05;;;;;;;13.05;7.93;;;;;;;4.65;98.03;100242.88;5027230;28;20029;-81
2021/12/25 01:10:33;;;;;;;12.93;8.50;;;;;;;4.58;97.52;100239.22;5013184;28;20476;-80
2021/12/25 01:13:04;;;;;;;14.70;8.75;;;;;;;4.45;97.29;100242.81;5028118;28;20025;-79
2021/12/25 01:15:46;;;;;;;13.57;8.45;;;;;;;4.54;97.44;100241.25;5033271;28;20048;-80
2021/12/25 01:18:59;;;;;;;13.02;8.65;;;;;;;4.55;97.92;100242.03;5012192;28;20037;-81
2021/12/25 01:30:02;;;;;;;17.40;11.52;;;;;;;4.32;99.16;100234.53;5043050;28;20036;-81
2021/12/25 01:32:57;;;;;;;18.35;11.70;;;;;;;4.34;98.89;100234.41;5026907;28;20450;-82
2021/12/25 01:36:08;;;;;;;22.50;11.95;;;;;;;4.32;98.04;100241.44;5022741;28;20407;-80
2021/12/25 01:39:12;;;;;;;;;;;;;;;4.27;97.90;100236.66;4972529;28;20050;-81
2021/12/25 01:42:08;;;;;;;17.45;9.02;;;;;;;4.21;96.54;100247.44;4971054;28;19968;-80
2021/12/25 01:47:51;;;;;;;13.85;8.25;;;;;;;4.09;96.89;100241.59;5030744;28;20060;-80
2021/12/25 01:50:22;;;;;;;14.50;8.40;;;;;;;4.09;97.02;100239.84;5007956;28;20099;-80
2021/12/25 01:52:49;;;;;;;13.25;8.13;;;;;;;4.09;96.66;100244.16;5022476;28;20108;-80
2021/12/25 01:55:22;;;;;;;13.30;8.52;;;;;;;4.13;96.61;100242.97;5025887;28;20092;-81
2021/12/25 01:57:48;;;;;;;12.55;8.18;;;;;;;4.03;96.71;100239.50;5027355;28;20484;-81
2021/12/25 02:00:17;;;;;;;15.65;9.23;;;;;;;3.97;97.64;100240.03;5023930;28;20040;-80
2021/12/25 02:02:43;;;;;;;13.68;8.65;;;;;;;3.94;97.24;100241.09;5026181;28;20049;-80
2021/12/25 02:05:09;;;;;;;14.07;8.35;;;;;;;3.95;97.43;100245.28;5043349;28;20063;-80
2021/12/25 02:07:35;;;;;;;11.98;7.97;;;;;;;3.95;97.17;100241.91;5028509;28;20045;-79
2021/12/25 02:10:00;;;;;;;13.40;8.18;;;;;;;3.94;97.07;100245.41;5028242;28;20439;-80
2021/12/25 02:12:27;;;;;;;16.60;8.88;;;;;;;3.88;97.02;100246.72;5012707;28;20029;-80
2021/12/25 02:14:54;;;;;;;15.43;9.00;;;;;;;3.86;97.16;100253.72;5031630;28;20033;-78
2021/12/25 02:17:27;;;;;;;13.82;8.35;;;;;;;3.84;96.77;100245.34;5026651;28;20389;-80
2021/12/25 02:20:12;;;;;;;;;;;;;;;3.86;97.45;100244.31;5029580;28;20044;-80
2021/12/25 02:22:39;;;;;;;13.98;8.85;;;;;;;3.80;96.87;100238.84;5028482;28;19927;-79
2021/12/25 02:25:05;;;;;;;18.95;10.68;;;;;;;3.77;97.09;100237.34;5030102;28;20029;-80
2021/12/25 02:27:31;;;;;;;19.42;10.57;;;;;;;3.77;97.72;100234.78;5030329;28;20419;-80
2021/12/25 02:29:57;;;;;;;19.42;10.43;;;;;;;3.79;98.18;100229.53;5033487;28;20033;-81
2021/12/25 02:32:22;;;;;;;26.23;15.45;;;;;;;3.80;97.74;100228.59;5015350;28;20036;-81
2021/12/25 02:34:49;;;;;;;25.13;15.15;;;;;;;3.82;97.40;100242.09;5029888;28;20116;-81
2021/12/25 02:37:16;;;;;;;26.63;16.10;;;;;;;3.71;97.65;100227.59;5032459;28;20033;-82
2021/12/25 02:39:41;;;;;;;27.50;16.25;;;;;;;3.67;97.25;100227.03;5026860;28;20030;-80
2021/12/25 02:42:07;;;;;;;29.30;16.77;;;;;;;3.60;97.77;100233.59;5013908;28;20095;-77
2021/12/25 02:44:33;;;;;;;24.42;15.50;;;;;;;3.61;98.13;100232.66;5031911;28;20122;-81
2021/12/25 02:47:08;;;;;;;29.92;16.45;;;;;;;3.51;97.88;100229.22;5012065;28;20033;-80
2021/12/25 02:49:34;;;;;;;25.30;15.85;;;;;;;3.50;97.89;100233.53;5052186;28;20033;-80
2021/12/25 02:52:00;;;;;;;28.33;16.95;;;;;;;3.47;97.97;100228.66;5034025;28;20040;-80
2021/12/25 02:54:26;;;;;;;36.03;20.05;;;;;;;3.39;98.25;100225.06;5048331;28;20031;-79
2021/12/25 02:56:51;;;;;;;27.98;16.45;;;;;;;3.45;98.66;100227.97;5035793;28;20030;-80
2021/12/25 02:59:17;;;;;;;29.23;16.98;;;;;;;3.44;98.70;100222.97;5032980;28;20037;-81
2021/12/25 03:01:43;;;;;;;25.35;15.45;;;;;;;3.40;97.65;100222.38;5016330;28;20041;-77
2021/12/25 03:04:09;;;;;;;29.08;17.27;;;;;;;3.38;97.61;100218.34;5011769;28;20069;-79
2021/12/25 03:06:36;;;;;;;27.65;16.50;;;;;;;3.34;97.43;100228.00;5023896;28;20037;-79
2021/12/25 03:09:06;;;;;;;27.77;15.77;;;;;;;3.33;97.43;100225.56;5020959;28;20128;-77
2021/12/25 03:11:33;;;;;;;28.38;16.52;;;;;;;3.38;97.26;100223.47;5037489;28;20087;-81
2021/12/25 03:14:11;;;;;;;29.33;15.73;;;;;;;3.34;97.25;100228.00;5032434;28;20033;-80
2021/12/25 03:16:37;;;;;;;27.60;16.48;;;;;;;3.30;97.11;100229.19;5030584;28;21392;-80
2021/12/25 03:19:04;;;;;;;25.15;15.60;;;;;;;3.24;96.51;100233.06;5026836;28;20403;-78
2021/12/25 03:21:29;;;;;;;27.40;16.20;;;;;;;3.08;96.33;100228.31;5023178;28;20054;-80
2021/12/25 03:23:54;;;;;;;26.83;16.10;;;;;;;3.11;96.64;100237.53;5031218;28;20123;-80
2021/12/25 03:26:21;;;;;;;25.67;15.82;;;;;;;3.14;96.38;100239.84;5035975;28;20039;-80
2021/12/25 03:28:50;;;;;;;25.42;15.23;;;;;;;3.15;96.84;100236.34;5029359;28;20045;-78
2021/12/25 03:31:20;;;;;;;25.13;15.80;;;;;;;3.12;96.33;100241.72;5037369;28;20037;-80
2021/12/25 03:33:50;;;;;;;27.38;16.73;;;;;;;3.11;96.28;100242.66;5044514;28;20404;-79
2021/12/25 03:36:16;;;;;;;27.67;16.38;;;;;;;3.10;97.04;100241.03;5017953;28;20404;-80
2021/12/25 03:38:42;;;;;;;29.48;18.08;;;;;;;3.10;97.51;100248.72;5024862;28;20033;-80
2021/12/25 03:41:08;;;;;;;31.30;18.55;;;;;;;3.10;97.23;100241.81;5014691;28;20129;-80
2021/12/25 03:43:38;;;;;;;32.75;19.75;;;;;;;3.06;97.30;100255.81;5020654;28;20572;-82
2021/12/25 03:46:04;;;;;;;30.58;18.85;;;;;;;3.02;97.30;100251.88;5013050;28;20037;-81
2021/12/25 03:48:55;;;;;;;32.15;19.02;;;;;;;2.99;96.84;100249.53;5013891;28;20049;-81
2021/12/25 03:59:16;;;;;;;31.45;19.42;;;;;;;2.68;97.64;100262.19;5024020;28;20065;-80
2021/12/25 04:01:51;;;;;;;31.90;19.08;;;;;;;2.68;98.08;100257.06;5036721;28;20044;-80
2021/12/25 04:04:35;;;;;;;34.22;20.17;;;;;;;2.72;97.89;100258.44;5030880;28;20042;-81
2021/12/25 04:07:07;;;;;;;30.55;18.58;;;;;;;2.70;98.26;100260.31;5026349;28;20052;-81
2021/12/25 04:09:34;;;;;;;35.43;18.93;;;;;;;2.69;98.29;100252.75;5035863;28;20057;-81
2021/12/25 04:12:06;;;;;;;27.85;17.58;;;;;;;2.58;97.35;100255.31;5041847;28;20830;-81
2021/12/25 04:14:33;;;;;;;27.20;17.00;;;;;;;2.66;97.07;100260.69;5026418;28;20029;-80
2021/12/25 04:16:59;;;;;;;26.55;16.77;;;;;;;2.60;96.59;100258.56;5037783;28;20037;-82
2021/12/25 04:19:25;;;;;;;28.85;17.52;;;;;;;2.59;97.16;100259.50;5024526;28;20033;-80
2021/12/25 04:21:55;;;;;;;27.55;17.10;;;;;;;2.58;96.73;100258.72;5032201;28;20159;-80
2021/12/25 04:24:22;;;;;;;28.45;18.40;;;;;;;2.53;96.78;100261.59;5016942;28;20040;-80
2021/12/25 04:26:49;;;;;;;29.15;18.33;;;;;;;2.41;97.18;100266.84;5011985;28;20037;-80
2021/12/25 04:29:35;;;;;;;31.38;19.35;;;;;;;2.36;97.73;100271.50;5014853;28;20025;-81
2021/12/25 05:02:26;;;;;;;32.75;20.00;;;;;;;2.22;97.90;100304.03;5033040;28;20043;-80
2021/12/25 05:05:15;;;;;;;33.13;19.75;;;;;;;2.11;97.47;100298.91;5037485;28;20052;-79
2021/12/25 05:07:53;;;;;;;34.40;20.45;;;;;;;2.14;98.19;100298.69;5024446;28;20033;-80
2021/12/25 05:10:19;;;;;;;34.83;20.23;;;;;;;2.22;97.44;100303.22;5029019;28;20037;-81
2021/12/25 05:12:44;;;;;;;31.10;19.15;;;;;;;2.13;97.25;100292.75;5007846;28;20030;-81
2021/12/25 05:15:10;;;;;;;31.67;18.65;;;;;;;2.08;97.12;100301.69;5034066;28;20044;-80
2021/12/25 05:17:35;;;;;;;31.63;19.02;;;;;;;2.05;97.01;100302.72;5032761;28;20544;-80
2021/12/25 05:20:03;;;;;;;29.30;17.80;;;;;;;2.03;97.48;100307.13;5038253;28;20037;-79
2021/12/25 05:22:29;;;;;;;34.28;18.83;;;;;;;1.96;96.89;100295.75;5013112;28;20029;-79
2021/12/25 05:24:54;;;;;;;28.92;16.80;;;;;;;1.91;97.02;100300.38;5013265;28;20037;-80
2021/12/25 05:27:21;;;;;;;28.85;17.55;;;;;;;1.95;97.26;100300.03;5028919;28;20400;-81
2021/12/25 05:29:47;;;;;;;32.42;18.52;;;;;;;1.92;97.52;100312.22;5031484;28;20559;-79
2021/12/25 05:32:18;;;;;;;34.08;19.52;;;;;;;1.90;97.61;100304.69;5050874;28;20064;-81
2021/12/25 05:35:04;;;;;;;33.85;19.77;;;;;;;1.95;97.63;100307.69;5020644;28;20064;-81
2021/12/25 05:37:48;;;;;;;37.15;17.92;;;;;;;1.95;98.25;100307.69;5008838;28;20033;-81
2021/12/25 05:40:24;;;;;;;33.60;19.48;;;;;;;1.91;97.81;100308.84;5030864;28;20060;-81
2021/12/25 05:42:51;;;;;;;32.35;19.30;;;;;;;1.86;97.59;100322.91;5030251;28;20036;-81
2021/12/25 05:45:18;;;;;;;33.60;19.20;;;;;;;1.81;97.97;100318.13;5006700;28;20021;-81
2021/12/25 05:47:56;;;;;;;34.85;20.95;;;;;;;1.79;98.99;100316.59;5023910;28;20029;-82
2021/12/25 05:50:35;;;;;;;35.83;20.30;;;;;;;1.79;98.74;100314.03;5022526;28;20030;-82
2021/12/25 05:53:21;;;;;;;39.83;21.38;;;;;;;1.75;98.45;100323.66;5027840;28;20120;-81
2021/12/25 05:56:05;;;;;;;38.65;20.60;;;;;;;1.68;98.54;100325.88;5026185;28;20052;-82
2021/12/25 05:58:45;;;;;;;35.00;20.15;;;;;;;1.61;98.48;100323.88;5016675;28;20041;-81
2021/12/25 06:01:22;;;;;;;33.20;20.10;;;;;;;1.59;98.36;100330.81;5023062;28;20029;-82
2021/12/25 06:03:47;;;;;;;33.42;19.38;;;;;;;1.57;98.19;100333.47;5013791;28;20037;-80
2021/12/25 06:06:13;;;;;;;28.33;17.10;;;;;;;1.59;97.71;100329.06;5012084;28;20044;-80
2021/12/25 06:08:39;;;;;;;30.17;18.02;;;;;;;1.50;96.94;100332.28;5033987;28;20040;-80
2021/12/25 06:11:04;;;;;;;30.83;18.38;;;;;;;1.38;97.38;100333.16;5014687;28;20041;-80
2021/12/25 06:13:31;;;;;;;26.92;16.90;;;;;;;1.44;97.91;100342.94;5030499;28;20136;-81
2021/12/25 06:15:57;;;;;;;28.60;16.83;;;;;;;1.35;97.65;100340.09;5028849;28;20036;-81
2021/12/25 06:18:34;;;;;;;29.83;17.30;;;;;;;1.42;98.31;100348.16;5037094;28;20079;-81
2021/12/25 06:21:12;;;;;;;29.95;17.83;;;;;;;1.34;97.75;100351.25;5029332;28;20037;-81
2021/12/25 06:24:07;;;;;;;27.08;16.30;;;;;;;1.24;98.31;100354.53;5023488;28;20044;-80
2021/12/25 06:26:51;;;;;;;32.95;18.25;;;;;;;1.24;98.69;100363.00;5038503;28;20048;-82
2021/12/25 06:29:39;;;;;;;31.15;17.98;;;;;;;1.27;98.52;100364.56;5025422;28;20510;-82
2021/12/25 06:32:20;;;;;;;33.58;18.27;;;;;;;1.23;98.54;100366.50;5033029;28;20037;-81
2021/12/25 06:35:18;;;;;;;30.65;17.65;;;;;;;1.14;98.39;100365.41;5004779;28;20059;-81
2021/12/25 06:38:03;;;;;;;26.40;16.80;;;;;;;1.21;98.16;100370.09;5010724;28;20045;-79
2021/12/25 06:40:48;;;;;;;25.60;15.18;;;;;;;1.16;97.13;100370.41;5025093;28;20160;-81
2021/12/25 06:43:14;;;;;;;27.33;16.88;;;;;;;0.96;97.38;100367.50;5019734;28;20033;-83
2021/12/25 06:45:40;;;;;;;25.90;15.90;;;;;;;0.87;97.93;100380.06;5034031;28;20040;-80
2021/12/25 06:48:06;;;;;;;28.85;15.70;;;;;;;0.83;97.99;100381.16;5035533;28;20029;-80
2021/12/25 06:50:50;;;;;;;31.23;17.40;;;;;;;0.82;97.92;100382.91;5028093;28;20105;-82
2021/12/25 06:53:36;;;;;;;31.50;17.08;;;;;;;0.84;98.05;100381.06;5030442;28;20029;-81
2021/12/25 06:56:31;;;;;;;27.02;16.35;;;;;;;0.73;97.59;100386.88;4933034;28;20039;-79
2021/12/25 06:59:00;;;;;;;29.05;16.52;;;;;;;0.67;97.43;100387.31;5042711;28;20030;-80
2021/12/25 07:01:27;;;;;;;27.58;17.23;;;;;;;0.66;97.90;100395.91;5013473;28;20087;-80
2021/12/25 07:03:53;;;;;;;28.83;18.05;;;;;;;0.68;98.08;100398.31;5015118;28;20029;-80
2021/12/25 07:06:36;;;;;;;30.52;17.75;;;;;;;0.69;98.04;100395.66;5024015;28;20123;-82
2021/12/25 07:09:20;;;;;;;30.33;18.83;;;;;;;0.65;98.17;100399.34;5032074;28;20594;-79
2021/12/25 07:11:58;;;;;;;31.20;19.13;;;;;;;0.65;98.36;100401.09;5031531;28;20037;-80
2021/12/25 07:14:34;;;;;;;37.83;18.63;;;;;;;0.67;98.96;100405.16;5018265;28;20131;-80
2021/12/25 07:17:20;;;;;;;40.42;19.92;;;;;;;0.72;98.99;100407.44;5031066;28;20047;-80
2021/12/25 07:19:57;;;;;;;39.92;21.27;;;;;;;0.66;97.97;100416.31;5020533;28;20099;-80
2021/12/25 07:22:42;;;;;;;44.00;22.85;;;;;;;0.59;97.98;100415.06;5036864;28;20048;-79
2021/12/25 07:25:33;;;;;;;44.75;24.27;;;;;;;0.56;98.35;100420.38;5018024;28;20183;-81
2021/12/25 07:28:37;;;;;;;41.03;22.27;;;;;;;0.51;98.69;100420.69;5015082;28;20072;-80
2021/12/25 07:31:04;;;;;;;40.03;22.95;;;;;;;0.51;98.34;100422.41;4992088;28;20073;-80
2021/12/25 07:33:32;;;;;;;42.33;21.92;;;;;;;0.48;98.30;100418.31;5017387;28;20083;-81
2021/12/25 07:35:58;;;;;;;42.05;20.77;;;;;;;0.41;98.48;100434.13;5031043;28;20476;-80
2021/12/25 07:38:25;;;;;;;34.15;18.33;;;;;;;0.38;98.41;100428.31;5025301;28;20034;-80
2021/12/25 07:40:51;;;;;;;37.97;20.02;;;;;;;0.33;98.46;100432.09;5031620;28;20040;-81
2021/12/25 07:43:17;;;;;;;39.40;20.27;;;;;;;0.31;98.61;100436.47;5030556;28;20033;-81
2021/12/25 07:46:03;;;;;;;35.15;19.65;;;;;;;0.27;98.20;100427.38;5027777;28;20034;-80
2021/12/25 07:48:28;;;;;;;36.92;21.25;;;;;;;0.29;98.75;100435.75;5019840;28;20093;-81
2021/12/25 07:51:05;;;;;;;62.47;30.63;;;;;;;0.31;99.21;100439.00;5023807;28;20060;-81
2021/12/25 07:53:32;;;;;;;136.07;49.80;;;;;;;0.26;99.15;100446.94;5018812;28;20106;-80
2021/12/25 07:55:57;;;;;;;86.28;39.55;;;;;;;0.20;99.14;100444.78;5032332;28;20037;-82
2021/12/25 07:58:23;;;;;;;62.72;31.08;;;;;;;0.23;99.22;100447.16;5027698;28;20041;-82
2021/12/25 08:00:49;;;;;;;71.30;33.45;;;;;;;0.17;99.43;100450.06;5026288;28;20038;-81
2021/12/25 08:03:16;;;;;;;89.43;44.05;;;;;;;0.17;99.12;100453.47;5028354;28;20129;-81
2021/12/25 08:05:43;;;;;;;53.00;28.00;;;;;;;0.22;98.92;100457.44;5016407;28;20421;-81
2021/12/25 08:08:10;;;;;;;57.92;28.85;;;;;;;0.23;98.34;100454.81;5032731;28;20388;-83
2021/12/25 08:10:36;;;;;;;51.55;26.67;;;;;;;0.26;99.11;100457.16;5026839;28;20043;-84
2021/12/25 08:13:02;;;;;;;56.20;26.83;;;;;;;0.28;98.95;100451.94;5031994;28;20096;-79
2021/12/25 08:15:29;;;;;;;50.08;26.27;;;;;;;0.23;98.48;100461.63;5036791;28;20108;-81
2021/12/25 08:17:56;;;;;;;50.38;26.23;;;;;;;0.10;98.88;100462.41;5031126;28;20037;-82
2021/12/25 08:20:34;;;;;;;42.20;23.83;;;;;;;0.15;98.44;100457.00;5031689;28;20079;-83
2021/12/25 08:23:18;;;;;;;45.65;25.90;;;;;;;0.26;98.29;100469.91;5031952;28;20625;-83
2021/12/25 08:26:04;;;;;;;47.35;23.83;;;;;;;0.24;97.92;100468.38;5029699;28;20046;-83
2021/12/25 08:28:48;;;;;;;48.10;25.05;;;;;;;0.16;98.05;100479.06;5032630;28;20055;-83
2021/12/25 08:31:32;;;;;;;78.20;35.05;;;;;;;0.25;98.92;100477.66;5026451;28;20052;-83
2021/12/25 08:34:26;;;;;;;46.42;23.27;;;;;;;0.15;98.52;100475.69;5030394;28;20125;-83
2021/12/25 08:36:59;;;;;;;42.08;23.67;;;;;;;0.15;98.54;100485.06;5030931;28;20554;-83
2021/12/25 08:39:25;;;;;;;40.70;22.40;;;;;;;0.16;98.20;100495.16;5036841;28;20041;-83
2021/12/25 08:41:52;;;;;;;44.35;23.88;;;;;;;0.04;98.55;100490.00;5045264;28;20095;-83
2021/12/25 08:44:33;;;;;;;43.50;23.48;;;;;;;0.07;98.55;100494.94;5032469;28;20037;-83
2021/12/25 08:47:00;;;;;;;40.72;23.05;;;;;;;0.06;98.37;100489.03;5010774;28;20432;-83
2021/12/25 08:49:31;;;;;;;42.20;22.83;;;;;;;0.05;98.62;100491.66;5033701;28;20029;-83
2021/12/25 08:52:04;;;;;;;41.80;24.08;;;;;;;0.14;98.64;100503.84;5013105;28;20034;-83
2021/12/25 08:54:29;;;;;;;47.20;24.67;;;;;;;0.11;98.34;100502.28;5029416;28;20038;-85
2021/12/25 08:56:55;;;;;;;43.88;23.92;;;;;;;0.07;98.73;100500.03;5013421;28;20034;-84
2021/12/25 08:59:20;;;;;;;47.58;25.27;;;;;;;0.01;98.54;100506.34;5035262;28;20041;-83
2021/12/25 09:01:47;;;;;;;48.85;25.08;;;;;;;-0.01;98.80;100503.88;5030874;28;20021;-83
2021/12/25 09:04:12;;;;;;;48.40;25.52;;;;;;;-0.01;99.09;100503.88;5057645;28;20036;-83
2021/12/25 09:06:39;;;;;;;54.45;26.80;;;;;;;-0.01;99.04;100505.63;5028440;28;20037;-84
2021/12/25 09:09:06;;;;;;;46.97;24.95;;;;;;;-0.01;98.99;100513.25;5036953;28;20492;-85
2021/12/25 09:11:33;;;;;;;54.45;27.70;;;;;;;-0.03;98.78;100512.53;5033880;28;20563;-83
2021/12/25 09:13:58;;;;;;;49.72;26.48;;;;;;;-0.01;98.38;100514.06;5034281;28;20048;-83
2021/12/25 09:16:24;;;;;;;54.80;27.98;;;;;;;-0.15;98.08;100511.56;5017478;28;20041;-82
2021/12/25 09:18:49;;;;;;;58.33;28.02;;;;;;;-0.16;98.04;100516.75;5034497;28;20037;-82
2021/12/25 09:21:15;;;;;;;47.60;24.98;;;;;;;-0.15;98.17;100513.28;5043027;28;20029;-84
2021/12/25 09:23:41;;;;;;;50.53;27.55;;;;;;;-0.16;98.60;100520.13;5035615;28;20304;-82
2021/12/25 09:26:06;;;;;;;58.47;27.50;;;;;;;-0.21;98.62;100527.22;5020554;28;20056;-83
2021/12/25 09:28:32;;;;;;;72.50;32.45;;;;;;;-0.12;98.65;100521.56;5018291;28;20083;-82
2021/12/25 09:30:57;;;;;;;59.10;29.35;;;;;;;-0.07;98.08;100534.03;5033318;28;20033;-81
2021/12/25 09:33:23;;;;;;;58.28;27.75;;;;;;;0.01;98.11;100531.03;5027008;28;20025;-82
2021/12/25 09:35:49;;;;;;;60.63;29.17;;;;;;;0.02;97.98;100538.56;5009573;28;20041;-81
2021/12/25 09:38:14;;;;;;;50.33;25.42;;;;;;;0.04;97.80;100538.47;5010467;28;20036;-81
2021/12/25 09:40:40;;;;;;;53.15;26.60;;;;;;;0.01;97.96;100541.22;5025717;28;20053;-81
2021/12/25 09:43:05;;;;;;;55.25;27.40;;;;;;;0.01;98.33;100541.22;5013278;28;20033;-81
2021/12/25 09:45:31;;;;;;;51.30;26.33;;;;;;;-0.01;98.65;100543.84;5011206;28;20562;-81
2021/12/25 09:47:56;;;;;;;51.08;26.77;;;;;;;-0.02;98.27;100547.31;5025531;28;20037;-81
2021/12/25 09:50:22;;;;;;;48.53;24.90;;;;;;;-0.03;98.58;100546.50;5025968;28;20037;-80
2021/12/25 09:52:48;;;;;;;51.55;24.27;;;;;;;-0.05;98.84;100558.50;5010382;28;20080;-81
2021/12/25 09:55:15;;;;;;;44.00;24.85;;;;;;;0.00;98.63;100553.16;5029917;28;20064;-80
2021/12/25 09:57:41;;;;;;;43.75;22.40;;;;;;;-0.11;98.29;100551.25;5021420;28;20595;-80
2021/12/25 10:00:21;;;;;;;41.50;23.17;;;;;;;-0.11;98.40;100555.53;5033540;28;20045;-80
2021/12/25 10:02:51;;;;;;;43.75;23.00;;;;;;;-0.03;98.21;100561.78;5025094;28;20096;-80
2021/12/25 10:05:33;;;;;;;39.08;21.77;;;;;;;-0.01;98.00;100562.50;5023769;28;20068;-80
2021/12/25 10:08:17;;;;;;;42.05;21.58;;;;;;;0.04;97.18;100561.41;5025378;28;20037;-81
2021/12/25 10:10:51;;;;;;;36.22;20.02;;;;;;;-0.01;97.26;100559.16;5025154;28;20496;-80
2021/12/25 10:13:31;;;;;;;38.38;19.60;;;;;;;0.06;97.60;100559.56;5009696;28;20030;-80
2021/12/25 10:16:01;;;;;;;35.08;18.90;;;;;;;0.07;97.71;100553.56;5001458;28;20087;-80
2021/12/25 10:18:34;;;;;;;30.50;18.85;;;;;;;0.07;96.69;100551.84;5024719;28;20025;-80
2021/12/25 10:21:17;;;;;;;;;;;;;;;0.14;97.31;100559.94;5014260;28;20037;-80
2021/12/25 10:23:42;;;;;;;30.42;16.42;;;;;;;0.11;96.21;100552.47;5037136;28;19927;-80
2021/12/25 10:26:07;;;;;;;24.48;14.70;;;;;;;0.06;96.47;100539.19;5012178;28;20045;-79
2021/12/25 10:28:36;;;;;;;22.65;14.13;;;;;;;0.00;95.33;100545.50;5009528;28;20045;-80
2021/12/25 10:31:04;;;;;;;20.30;13.60;;;;;;;0.00;94.50;100540.41;5012530;28;20450;-80
2021/12/25 10:33:35;;;;;;;21.45;13.80;;;;;;;-0.07;94.52;100545.03;5024762;28;20041;-79
2021/12/25 10:36:07;;;;;;;22.15;12.98;;;;;;;-0.11;94.85;100538.50;5011221;28;20041;-83
2021/12/25 10:38:34;;;;;;;24.48;13.63;;;;;;;0.04;95.52;100539.31;5025871;28;20179;-84
2021/12/25 10:41:11;;;;;;;20.20;12.57;;;;;;;0.06;95.57;100549.38;5024958;28;20049;-83
2021/12/25 10:43:41;;;;;;;24.70;13.43;;;;;;;0.05;94.69;100540.09;5010039;28;20045;-83
2021/12/25 10:46:07;;;;;;;24.67;12.45;;;;;;;0.05;94.68;100535.81;5016397;28;20029;-83
2021/12/25 10:48:33;;;;;;;30.98;15.55;;;;;;;0.02;95.20;100532.63;5026676;28;20671;-82
2021/12/25 10:50:59;;;;;;;18.50;11.63;;;;;;;0.03;94.29;100534.28;5029915;28;20041;-80
2021/12/25 10:53:32;;;;;;;18.02;10.95;;;;;;;0.04;94.95;100531.66;5047414;28;20021;-81
2021/12/25 10:56:05;;;;;;;;;;;;;;;0.08;95.23;100542.47;5009557;28;20099;-79
2021/12/25 10:58:31;;;;;;;17.92;11.07;;;;;;;0.10;95.14;100546.56;5027265;28;19920;-79
2021/12/25 11:00:57;;;;;;;18.48;10.10;;;;;;;0.12;94.99;100556.69;5013709;28;20021;-77
2021/12/25 11:03:32;;;;;;;17.08;10.23;;;;;;;0.10;93.82;100549.13;5027070;28;20277;-78
2021/12/25 11:06:13;;;;;;;17.15;11.23;;;;;;;0.09;93.76;100559.41;5016413;28;20087;-79
2021/12/25 11:08:40;;;;;;;15.18;9.88;;;;;;;0.04;94.35;100562.25;5013962;28;20038;-78
2021/12/25 11:11:15;;;;;;;14.40;8.80;;;;;;;0.05;93.72;100568.97;5026017;28;20039;-80
2021/12/25 11:13:55;;;;;;;15.77;9.90;;;;;;;0.13;93.89;100564.25;5031836;28;20044;-80
2021/12/25 11:16:32;;;;;;;17.80;10.18;;;;;;;0.07;93.86;100566.34;5010374;28;20052;-80
2021/12/25 11:21:35;;;;;;;24.52;11.38;;;;;;;0.05;93.83;100573.25;5044363;28;20037;-78
2021/12/25 11:24:14;;;;;;;19.30;10.50;;;;;;;0.03;93.10;100572.53;5026924;28;20145;-80
2021/12/25 11:26:41;;;;;;;13.05;8.13;;;;;;;0.02;93.19;100579.38;5032010;28;20504;-80
2021/12/25 11:29:08;;;;;;;17.95;10.27;;;;;;;0.01;93.65;100587.91;5030540;28;20041;-80
2021/12/25 11:31:34;;;;;;;17.30;9.70;;;;;;;0.01;93.63;100585.38;5012836;28;20555;-79
2021/12/25 11:34:02;;;;;;;10.23;7.18;;;;;;;0.06;92.57;100579.97;5029425;28;20104;-79
2021/12/25 11:36:27;;;;;;;15.30;9.02;;;;;;;0.10;92.63;100572.06;5012040;28;20100;-80
2021/12/25 11:38:53;;;;;;;14.93;8.68;;;;;;;0.08;93.30;100568.78;5011524;28;20488;-79
2021/12/25 11:41:19;;;;;;;15.30;7.93;;;;;;;0.12;92.65;100565.13;5031329;28;20044;-80
2021/12/25 11:43:46;;;;;;;8.77;6.38;;;;;;;0.06;92.12;100564.69;5023540;28;20396;-78
2021/12/25 11:46:15;;;;;;;12.63;7.13;;;;;;;-0.01;91.96;100552.31;5032109;28;20037;-78
2021/12/25 11:48:41;;;;;;;8.40;5.90;;;;;;;-0.03;92.50;100556.69;5031388;28;20032;-79
2021/12/25 11:51:28;;;;;;;5.97;4.93;;;;;;;0.04;91.18;100549.50;5029810;28;20036;-79
2021/12/25 11:56:38;;;;;;;11.75;6.20;;;;;;;-0.05;91.30;100552.59;5030593;28;20141;-78
2021/12/25 11:59:12;;;;;;;9.85;5.85;;;;;;;-0.02;92.31;100540.50;5039749;28;20052;-78
2021/12/25 12:01:38;;;;;;;8.93;5.78;;;;;;;-0.03;91.63;100545.69;5013505;28;20033;-81
2021/12/25 12:04:09;;;;;;;8.60;5.40;;;;;;;-0.08;91.71;100537.50;5030909;28;20056;-78
2021/12/25 12:06:44;;;;;;;10.88;5.43;;;;;;;-0.08;91.44;100543.41;5029923;28;20033;-78
2021/12/25 12:09:17;;;;;;;9.63;5.65;;;;;;;-0.12;91.85;100543.69;5030044;28;20041;-78
2021/12/25 12:12:11;;;;;;;11.30;5.97;;;;;;;-0.07;91.84;100539.94;5025972;28;20049;-79
2021/12/25 12:15:15;;;;;;;9.60;5.43;;;;;;;-0.19;90.96;100543.22;5027143;28;20048;-80
2021/12/25 12:18:29;;;;;;;8.52;5.80;;;;;;;-0.08;91.67;100545.94;5040757;28;20650;-79
2021/12/25 12:21:04;;;;;;;8.70;5.15;;;;;;;-0.07;91.35;100551.88;5027580;28;20033;-80
2021/12/25 12:26:11;;;;;;;10.98;5.40;;;;;;;-0.11;90.51;100542.78;5029448;28;20041;-81
2021/12/25 12:28:53;;;;;;;9.82;5.07;;;;;;;-0.16;90.42;100545.59;5029920;28;20041;-79
2021/12/25 12:31:37;;;;;;;9.70;5.20;;;;;;;-0.04;90.61;100569.53;5034424;28;20047;-78
2021/12/25 12:34:31;;;;;;;10.43;5.13;;;;;;;0.05;91.27;100557.97;5037518;28;20036;-78
2021/12/25 12:37:14;;;;;;;9.93;5.25;;;;;;;0.06;91.18;100568.06;5027893;28;20411;-78
2021/12/25 12:39:40;;;;;;;9.57;5.28;;;;;;;0.07;90.73;100572.25;5047786;28;20290;-79